sensor_id;sensor_type;location;lat;lon;timestamp;pressure;altitude;pressure_sealevel;temperature;humidity
60437;BME280;46289;51.992;4.498;2023-04-07T00:00:06;101741.59;;;7.19;96.88
60437;BME280;46289;51.992;4.498;2023-04-07T00:02:11;101748.56;;;7.15;96.83
60437;BME280;46289;51.992;4.498;2023-04-07T00:04:16;101743.38;;;7.11;96.76
60437;BME280;46289;51.992;4.498;2023-04-07T00:06:24;101752.09;;;7.13;97.07
60437;BME280;46289;51.992;4.498;2023-04-07T00:08:30;101746.91;;;7.10;97.12
60437;BME280;46289;51.992;4.498;2023-04-07T00:10:34;101749.53;;;7.08;96.97
60437;BME280;46289;51.992;4.498;2023-04-07T00:12:41;101752.13;;;7.08;97.03
60437;BME280;46289;51.992;4.498;2023-04-07T00:14:45;101746.91;;;7.11;96.86
60437;BME280;46289;51.992;4.498;2023-04-07T00:16:53;101749.50;;;7.10;97.04
60437;BME280;46289;51.992;4.498;2023-04-07T00:19:00;101747.78;;;7.09;97.21
60437;BME280;46289;51.992;4.498;2023-04-07T00:21:05;101754.69;;;7.13;97.28
60437;BME280;46289;51.992;4.498;2023-04-07T00:23:13;101753.00;;;7.10;97.34
60437;BME280;46289;51.992;4.498;2023-04-07T00:25:21;101752.13;;;7.11;97.12
60437;BME280;46289;51.992;4.498;2023-04-07T00:27:27;101741.69;;;7.08;97.21
60437;BME280;46289;51.992;4.498;2023-04-07T00:29:33;101745.19;;;7.07;97.10
60437;BME280;46289;51.992;4.498;2023-04-07T00:31:38;101746.13;;;7.03;97.38
60437;BME280;46289;51.992;4.498;2023-04-07T00:33:46;101754.91;;;6.94;97.37
60437;BME280;46289;51.992;4.498;2023-04-07T00:35:56;101756.75;;;6.86;97.37
60437;BME280;46289;51.992;4.498;2023-04-07T00:38:01;101756.78;;;6.83;97.42
60437;BME280;46289;51.992;4.498;2023-04-07T00:40:11;101756.84;;;6.74;97.56
60437;BME280;46289;51.992;4.498;2023-04-07T00:42:15;101761.28;;;6.66;97.21
60437;BME280;46289;51.992;4.498;2023-04-07T00:44:20;101759.56;;;6.63;97.55
60437;BME280;46289;51.992;4.498;2023-04-07T00:46:25;101759.63;;;6.57;97.66
60437;BME280;46289;51.992;4.498;2023-04-07T00:48:30;101762.28;;;6.52;97.83
60437;BME280;46289;51.992;4.498;2023-04-07T00:50:35;101764.06;;;6.47;97.98
60437;BME280;46289;51.992;4.498;2023-04-07T00:52:40;101760.63;;;6.44;98.12
60437;BME280;46289;51.992;4.498;2023-04-07T00:54:51;101769.38;;;6.38;98.46
60437;BME280;46289;51.992;4.498;2023-04-07T00:57:00;101765.09;;;6.31;98.20
60437;BME280;46289;51.992;4.498;2023-04-07T00:59:07;101760.78;;;6.27;98.23
60437;BME280;46289;51.992;4.498;2023-04-07T01:01:15;101764.28;;;6.23;98.32
60437;BME280;46289;51.992;4.498;2023-04-07T01:03:27;101763.44;;;6.18;98.21
60437;BME280;46289;51.992;4.498;2023-04-07T01:05:38;101756.56;;;6.09;98.21
60437;BME280;46289;51.992;4.498;2023-04-07T01:07:50;101755.69;;;6.05;98.42
60437;BME280;46289;51.992;4.498;2023-04-07T01:10:00;101760.06;;;6.02;98.36
60437;BME280;46289;51.992;4.498;2023-04-07T01:12:17;101761.00;;;5.96;98.48
60437;BME280;46289;51.992;4.498;2023-04-07T01:14:29;101756.66;;;5.89;98.20
60437;BME280;46289;51.992;4.498;2023-04-07T01:16:41;101771.44;;;5.87;98.46
60437;BME280;46289;51.992;4.498;2023-04-07T01:18:53;101771.47;;;5.84;98.69
60437;BME280;46289;51.992;4.498;2023-04-07T01:21:02;101767.97;;;5.82;99.05
60437;BME280;46289;51.992;4.498;2023-04-07T01:23:08;101765.44;;;5.77;98.67
60437;BME280;46289;51.992;4.498;2023-04-07T01:28:17;101770.63;;;5.76;99.01
60437;BME280;46289;51.992;4.498;2023-04-07T01:30:31;101765.44;;;5.72;98.92
60437;BME280;46289;51.992;4.498;2023-04-07T01:32:39;101770.66;;;5.74;99.37
60437;BME280;46289;51.992;4.498;2023-04-07T01:34:46;101774.13;;;5.75;98.94
60437;BME280;46289;51.992;4.498;2023-04-07T01:36:53;101775.88;;;5.77;99.34
60437;BME280;46289;51.992;4.498;2023-04-07T01:38:58;101780.22;;;5.77;99.19
60437;BME280;46289;51.992;4.498;2023-04-07T01:41:04;101773.22;;;5.85;99.43
60437;BME280;46289;51.992;4.498;2023-04-07T01:43:10;101773.22;;;5.85;99.16
60437;BME280;46289;51.992;4.498;2023-04-07T01:45:17;101772.31;;;5.86;99.57
60437;BME280;46289;51.992;4.498;2023-04-07T01:47:25;101778.41;;;5.88;99.63
60437;BME280;46289;51.992;4.498;2023-04-07T01:49:32;101769.75;;;5.83;99.54
60437;BME280;46289;51.992;4.498;2023-04-07T01:51:39;101773.16;;;5.91;99.94
60437;BME280;46289;51.992;4.498;2023-04-07T01:53:46;101780.13;;;5.89;99.29
60437;BME280;46289;51.992;4.498;2023-04-07T01:55:53;101775.78;;;5.88;99.38
60437;BME280;46289;51.992;4.498;2023-04-07T01:58:03;101774.94;;;5.86;99.44
60437;BME280;46289;51.992;4.498;2023-04-07T02:00:09;101775.81;;;5.83;99.39
60437;BME280;46289;51.992;4.498;2023-04-07T02:02:19;101777.53;;;5.84;99.38
60437;BME280;46289;51.992;4.498;2023-04-07T02:04:29;101772.34;;;5.83;99.74
60437;BME280;46289;51.992;4.498;2023-04-07T02:06:42;101773.19;;;5.88;100.00
60437;BME280;46289;51.992;4.498;2023-04-07T02:08:54;101780.13;;;5.89;99.63
60437;BME280;46289;51.992;4.498;2023-04-07T02:11:01;101774.91;;;5.89;99.78
60437;BME280;46289;51.992;4.498;2023-04-07T02:13:12;101771.41;;;5.91;100.00
60437;BME280;46289;51.992;4.498;2023-04-07T02:15:20;101775.78;;;5.94;99.76
60437;BME280;46289;51.992;4.498;2023-04-07T02:17:27;101767.94;;;5.94;99.97
60437;BME280;46289;51.992;4.498;2023-04-07T02:19:35;101772.28;;;5.89;99.91
60437;BME280;46289;51.992;4.498;2023-04-07T02:21:41;101776.63;;;5.93;99.68
60437;BME280;46289;51.992;4.498;2023-04-07T02:23:47;101772.31;;;5.95;100.00
60437;BME280;46289;51.992;4.498;2023-04-07T02:25:55;101773.16;;;5.97;100.00
60437;BME280;46289;51.992;4.498;2023-04-07T02:28:00;101784.47;;;5.91;99.69
60437;BME280;46289;51.992;4.498;2023-04-07T02:30:06;101783.59;;;5.91;100.00
60437;BME280;46289;51.992;4.498;2023-04-07T02:32:17;101778.38;;;5.91;100.00
60437;BME280;46289;51.992;4.498;2023-04-07T02:34:22;101781.00;;;5.86;99.64
60437;BME280;46289;51.992;4.498;2023-04-07T02:36:30;101785.34;;;5.84;99.77
60437;BME280;46289;51.992;4.498;2023-04-07T02:38:39;101778.41;;;5.82;99.55
60437;BME280;46289;51.992;4.498;2023-04-07T02:40:47;101775.84;;;5.80;99.80
60437;BME280;46289;51.992;4.498;2023-04-07T02:42:51;101777.59;;;5.77;99.67
60437;BME280;46289;51.992;4.498;2023-04-07T02:44:57;101783.66;;;5.79;99.76
60437;BME280;46289;51.992;4.498;2023-04-07T02:47:01;101783.66;;;5.79;99.90
60437;BME280;46289;51.992;4.498;2023-04-07T02:49:06;101783.66;;;5.79;99.71
60437;BME280;46289;51.992;4.498;2023-04-07T02:51:11;101775.84;;;5.79;99.66
60437;BME280;46289;51.992;4.498;2023-04-07T02:53:19;101775.84;;;5.79;99.76
60437;BME280;46289;51.992;4.498;2023-04-07T02:55:28;101780.16;;;5.83;99.74
60437;BME280;46289;51.992;4.498;2023-04-07T02:57:33;101781.03;;;5.83;99.77
60437;BME280;46289;51.992;4.498;2023-04-07T02:59:38;101775.81;;;5.83;99.75
60437;BME280;46289;51.992;4.498;2023-04-07T03:01:46;101773.22;;;5.85;100.00
60437;BME280;46289;51.992;4.498;2023-04-07T03:03:51;101774.94;;;5.86;100.00
60437;BME280;46289;51.992;4.498;2023-04-07T03:05:57;101781.00;;;5.88;99.73
60437;BME280;46289;51.992;4.498;2023-04-07T03:08:10;101787.97;;;5.90;100.00
60437;BME280;46289;51.992;4.498;2023-04-07T03:10:25;101787.97;;;5.93;100.00
60437;BME280;46289;51.992;4.498;2023-04-07T03:12:33;101782.72;;;5.98;100.00
60437;BME280;46289;51.992;4.498;2023-04-07T03:14:40;101787.91;;;6.00;100.00
60437;BME280;46289;51.992;4.498;2023-04-07T03:16:45;101780.06;;;6.03;100.00
60437;BME280;46289;51.992;4.498;2023-04-07T03:18:50;101779.19;;;6.07;100.00
60437;BME280;46289;51.992;4.498;2023-04-07T03:20:55;101785.25;;;6.13;100.00
60437;BME280;46289;51.992;4.498;2023-04-07T03:23:02;101788.69;;;6.15;100.00
60437;BME280;46289;51.992;4.498;2023-04-07T03:25:08;101786.03;;;6.19;100.00
60437;BME280;46289;51.992;4.498;2023-04-07T03:27:15;101787.78;;;6.24;100.00
60437;BME280;46289;51.992;4.498;2023-04-07T03:29:22;101788.59;;;6.28;100.00
60437;BME280;46289;51.992;4.498;2023-04-07T03:31:27;101785.09;;;6.32;100.00
60437;BME280;46289;51.992;4.498;2023-04-07T03:33:32;101787.47;;;6.58;100.00
60437;BME280;46289;51.992;4.498;2023-04-07T03:35:37;101782.16;;;6.69;100.00
60437;BME280;46289;51.992;4.498;2023-04-07T03:37:43;101785.56;;;6.78;99.55
60437;BME280;46289;51.992;4.498;2023-04-07T03:39:47;101789.84;;;6.86;99.27
60437;BME280;46289;51.992;4.498;2023-04-07T03:42:00;101780.19;;;6.92;99.19
60437;BME280;46289;51.992;4.498;2023-04-07T03:44:10;101783.66;;;6.94;99.04
60437;BME280;46289;51.992;4.498;2023-04-07T03:46:15;101789.69;;;6.99;98.92
60437;BME280;46289;51.992;4.498;2023-04-07T03:48:24;101781.81;;;7.04;98.30
60437;BME280;46289;51.992;4.498;2023-04-07T03:50:30;101784.44;;;7.04;98.19
60437;BME280;46289;51.992;4.498;2023-04-07T03:52:37;101789.63;;;7.06;97.84
60437;BME280;46289;51.992;4.498;2023-04-07T03:54:42;101787.81;;;7.11;96.82
60437;BME280;46289;51.992;4.498;2023-04-07T03:56:47;101793.03;;;7.14;96.48
60437;BME280;46289;51.992;4.498;2023-04-07T03:58:52;101791.25;;;7.16;95.69
60437;BME280;46289;51.992;4.498;2023-04-07T04:01:01;101789.50;;;7.19;94.72
60437;BME280;46289;51.992;4.498;2023-04-07T04:03:07;101791.22;;;7.22;94.55
60437;BME280;46289;51.992;4.498;2023-04-07T04:05:12;101793.88;;;7.17;94.95
60437;BME280;46289;51.992;4.498;2023-04-07T04:07:17;101794.72;;;7.18;94.87
60437;BME280;46289;51.992;4.498;2023-04-07T04:09:22;101794.72;;;7.18;94.72
60437;BME280;46289;51.992;4.498;2023-04-07T04:11:27;101803.47;;;7.17;95.18
60437;BME280;46289;51.992;4.498;2023-04-07T04:13:32;101806.94;;;7.19;94.95
60437;BME280;46289;51.992;4.498;2023-04-07T04:15:37;101794.66;;;7.24;94.69
60437;BME280;46289;51.992;4.498;2023-04-07T04:17:46;101808.66;;;7.21;95.15
60437;BME280;46289;51.992;4.498;2023-04-07T04:19:51;101806.91;;;7.20;95.14
60437;BME280;46289;51.992;4.498;2023-04-07T04:21:56;101806.94;;;7.19;95.49
60437;BME280;46289;51.992;4.498;2023-04-07T04:24:01;101803.47;;;7.17;95.59
60437;BME280;46289;51.992;4.498;2023-04-07T04:26:09;101806.94;;;7.16;95.59
60437;BME280;46289;51.992;4.498;2023-04-07T04:28:14;101806.13;;;7.14;96.08
60437;BME280;46289;51.992;4.498;2023-04-07T04:30:19;101808.69;;;7.17;95.88
60437;BME280;46289;51.992;4.498;2023-04-07T04:32:24;101808.66;;;7.18;95.66
60437;BME280;46289;51.992;4.498;2023-04-07T04:34:32;101813.88;;;7.20;95.43
60437;BME280;46289;51.992;4.498;2023-04-07T04:36:39;101819.13;;;7.20;95.60
60437;BME280;46289;51.992;4.498;2023-04-07T04:38:47;101812.16;;;7.19;95.57
60437;BME280;46289;51.992;4.498;2023-04-07T04:40:55;101818.25;;;7.18;95.61
60437;BME280;46289;51.992;4.498;2023-04-07T04:43:00;101819.13;;;7.20;95.24
60437;BME280;46289;51.992;4.498;2023-04-07T04:45:09;101822.59;;;7.22;95.42
60437;BME280;46289;51.992;4.498;2023-04-07T04:47:15;101817.38;;;7.19;95.39
60437;BME280;46289;51.992;4.498;2023-04-07T04:49:20;101822.63;;;7.19;95.29
60437;BME280;46289;51.992;4.498;2023-04-07T04:51:28;101826.06;;;7.22;95.33
60437;BME280;46289;51.992;4.498;2023-04-07T04:53:33;101819.97;;;7.22;95.29
60437;BME280;46289;51.992;4.498;2023-04-07T04:55:38;101831.25;;;7.24;95.10
60437;BME280;46289;51.992;4.498;2023-04-07T04:57:47;101826.94;;;7.21;95.41
60437;BME280;46289;51.992;4.498;2023-04-07T04:59:52;101836.47;;;7.24;95.35
60437;BME280;46289;51.992;4.498;2023-04-07T05:01:57;101836.47;;;7.25;95.41
60437;BME280;46289;51.992;4.498;2023-04-07T05:04:02;101832.13;;;7.23;94.95
60437;BME280;46289;51.992;4.498;2023-04-07T05:06:07;101824.34;;;7.21;95.48
60437;BME280;46289;51.992;4.498;2023-04-07T05:08:15;101826.91;;;7.23;94.61
60437;BME280;46289;51.992;4.498;2023-04-07T05:10:20;101826.91;;;7.24;94.76
60437;BME280;46289;51.992;4.498;2023-04-07T05:12:25;101819.06;;;7.23;94.77
60437;BME280;46289;51.992;4.498;2023-04-07T05:14:30;101823.44;;;7.22;95.21
60437;BME280;46289;51.992;4.498;2023-04-07T05:16:34;101827.81;;;7.22;95.01
60437;BME280;46289;51.992;4.498;2023-04-07T05:18:39;101829.53;;;7.24;95.01
60437;BME280;46289;51.992;4.498;2023-04-07T05:20:47;101833.91;;;7.22;95.01
60437;BME280;46289;51.992;4.498;2023-04-07T05:22:52;101838.25;;;7.22;94.93
60437;BME280;46289;51.992;4.498;2023-04-07T05:25:03;101839.13;;;7.22;95.23
60437;BME280;46289;51.992;4.498;2023-04-07T05:27:08;101843.50;;;7.22;95.08
60437;BME280;46289;51.992;4.498;2023-04-07T05:29:13;101849.59;;;7.22;95.17
60437;BME280;46289;51.992;4.498;2023-04-07T05:31:17;101841.69;;;7.24;94.27
60437;BME280;46289;51.992;4.498;2023-04-07T05:33:22;101843.41;;;7.28;94.05
60437;BME280;46289;51.992;4.498;2023-04-07T05:35:27;101848.66;;;7.28;94.14
60437;BME280;46289;51.992;4.498;2023-04-07T05:37:33;101844.31;;;7.27;93.39
60437;BME280;46289;51.992;4.498;2023-04-07T05:39:37;101846.94;;;7.27;93.81
60437;BME280;46289;51.992;4.498;2023-04-07T05:41:46;101848.66;;;7.30;93.77
60437;BME280;46289;51.992;4.498;2023-04-07T05:43:51;101841.66;;;7.30;93.16
60437;BME280;46289;51.992;4.498;2023-04-07T05:45:56;101852.09;;;7.33;92.50
60437;BME280;46289;51.992;4.498;2023-04-07T05:48:03;101852.09;;;7.33;93.18
60437;BME280;46289;51.992;4.498;2023-04-07T05:50:09;101848.56;;;7.37;92.66
60437;BME280;46289;51.992;4.498;2023-04-07T05:52:15;101852.03;;;7.38;92.50
60437;BME280;46289;51.992;4.498;2023-04-07T05:54:20;101853.78;;;7.37;92.68
60437;BME280;46289;51.992;4.498;2023-04-07T05:56:28;101856.41;;;7.37;92.48
60437;BME280;46289;51.992;4.498;2023-04-07T05:58:39;101859.03;;;7.37;92.90
60437;BME280;46289;51.992;4.498;2023-04-07T06:00:47;101864.22;;;7.40;92.92
60437;BME280;46289;51.992;4.498;2023-04-07T06:02:53;101865.94;;;7.41;92.64
60437;BME280;46289;51.992;4.498;2023-04-07T06:04:58;101872.88;;;7.42;92.73
60437;BME280;46289;51.992;4.498;2023-04-07T06:07:03;101871.13;;;7.44;92.98
60437;BME280;46289;51.992;4.498;2023-04-07T06:09:08;101875.41;;;7.50;92.71
60437;BME280;46289;51.992;4.498;2023-04-07T06:11:23;101881.50;;;7.52;92.62
60437;BME280;46289;51.992;4.498;2023-04-07T06:13:28;101880.59;;;7.56;91.82
60437;BME280;46289;51.992;4.498;2023-04-07T06:15:35;101877.94;;;7.58;92.32
60437;BME280;46289;51.992;4.498;2023-04-07T06:17:40;101881.47;;;7.55;91.65
60437;BME280;46289;51.992;4.498;2023-04-07T06:19:48;101876.22;;;7.57;91.67
60437;BME280;46289;51.992;4.498;2023-04-07T06:21:53;101878.84;;;7.58;91.74
60437;BME280;46289;51.992;4.498;2023-04-07T06:24:00;101880.56;;;7.58;91.77
60437;BME280;46289;51.992;4.498;2023-04-07T06:26:09;101877.03;;;7.62;91.91
60437;BME280;46289;51.992;4.498;2023-04-07T06:28:14;101877.06;;;7.60;91.80
60437;BME280;46289;51.992;4.498;2023-04-07T06:30:19;101879.63;;;7.65;92.04
60437;BME280;46289;51.992;4.498;2023-04-07T06:32:28;101886.56;;;7.67;92.23
60437;BME280;46289;51.992;4.498;2023-04-07T06:34:34;101890.03;;;7.69;91.77
60437;BME280;46289;51.992;4.498;2023-04-07T06:36:39;101883.91;;;7.70;92.25
60437;BME280;46289;51.992;4.498;2023-04-07T06:38:46;101887.38;;;7.71;91.82
60437;BME280;46289;51.992;4.498;2023-04-07T06:40:52;101886.53;;;7.70;91.33
60437;BME280;46289;51.992;4.498;2023-04-07T06:42:57;101887.44;;;7.69;90.86
60437;BME280;46289;51.992;4.498;2023-04-07T06:45:02;101892.63;;;7.73;90.98
60437;BME280;46289;51.992;4.498;2023-04-07T06:47:07;101887.34;;;7.76;89.96
60437;BME280;46289;51.992;4.498;2023-04-07T06:49:15;101895.16;;;7.80;90.82
60437;BME280;46289;51.992;4.498;2023-04-07T06:51:20;101896.81;;;7.86;90.95
60437;BME280;46289;51.992;4.498;2023-04-07T06:53:25;101893.38;;;7.79;90.48
60437;BME280;46289;51.992;4.498;2023-04-07T06:55:30;101897.75;;;7.79;90.65
60437;BME280;46289;51.992;4.498;2023-04-07T06:57:35;101896.06;;;7.76;90.20
60437;BME280;46289;51.992;4.498;2023-04-07T06:59:40;101906.47;;;7.79;89.88
60437;BME280;46289;51.992;4.498;2023-04-07T07:01:45;101903.94;;;7.75;89.16
60437;BME280;46289;51.992;4.498;2023-04-07T07:03:50;101919.59;;;7.76;88.77
60437;BME280;46289;51.992;4.498;2023-04-07T07:05:59;101914.41;;;7.75;88.25
60437;BME280;46289;51.992;4.498;2023-04-07T07:08:06;101923.97;;;7.76;88.28
60437;BME280;46289;51.992;4.498;2023-04-07T07:10:14;101926.63;;;7.71;87.00
60437;BME280;46289;51.992;4.498;2023-04-07T07:12:19;101923.19;;;7.66;86.23
60437;BME280;46289;51.992;4.498;2023-04-07T07:14:24;101924.94;;;7.65;86.63
60437;BME280;46289;51.992;4.498;2023-04-07T07:16:29;101923.22;;;7.64;87.69
60437;BME280;46289;51.992;4.498;2023-04-07T07:18:40;101925.81;;;7.67;86.86
60437;BME280;46289;51.992;4.498;2023-04-07T07:20:47;101934.56;;;7.66;86.98
60437;BME280;46289;51.992;4.498;2023-04-07T07:22:55;101930.16;;;7.70;87.99
60437;BME280;46289;51.992;4.498;2023-04-07T07:25:01;101942.28;;;7.76;88.07
60437;BME280;46289;51.992;4.498;2023-04-07T07:27:08;101941.41;;;7.77;87.29
60437;BME280;46289;51.992;4.498;2023-04-07T07:29:13;101939.72;;;7.73;87.01
60437;BME280;46289;51.992;4.498;2023-04-07T07:31:19;101944.94;;;7.74;87.49
60437;BME280;46289;51.992;4.498;2023-04-07T07:33:25;101942.31;;;7.74;87.66
60437;BME280;46289;51.992;4.498;2023-04-07T07:35:30;101951.91;;;7.74;88.38
60437;BME280;46289;51.992;4.498;2023-04-07T07:37:35;101951.06;;;7.70;87.95
60437;BME280;46289;51.992;4.498;2023-04-07T07:39:45;101954.47;;;7.80;88.71
60437;BME280;46289;51.992;4.498;2023-04-07T07:41:50;101957.88;;;7.86;88.54
60437;BME280;46289;51.992;4.498;2023-04-07T07:43:56;101958.59;;;8.01;88.69
60437;BME280;46289;51.992;4.498;2023-04-07T07:46:01;101962.06;;;8.00;86.32
60437;BME280;46289;51.992;4.498;2023-04-07T07:48:06;101958.50;;;8.05;86.64
60437;BME280;46289;51.992;4.498;2023-04-07T07:50:11;101957.59;;;8.08;85.12
60437;BME280;46289;51.992;4.498;2023-04-07T07:52:17;101962.84;;;8.08;84.94
60437;BME280;46289;51.992;4.498;2023-04-07T07:54:22;101968.13;;;8.05;84.18
60437;BME280;46289;51.992;4.498;2023-04-07T07:56:29;101974.22;;;8.08;84.36
60437;BME280;46289;51.992;4.498;2023-04-07T07:58:34;101969.84;;;8.09;83.81
60437;BME280;46289;51.992;4.498;2023-04-07T08:00:39;101968.97;;;8.08;84.40
60437;BME280;46289;51.992;4.498;2023-04-07T08:02:46;101963.69;;;8.11;84.44
60437;BME280;46289;51.992;4.498;2023-04-07T08:04:51;101968.94;;;8.11;84.36
60437;BME280;46289;51.992;4.498;2023-04-07T08:06:56;101974.22;;;8.08;84.73
60437;BME280;46289;51.992;4.498;2023-04-07T08:09:01;101970.59;;;8.16;85.20
60437;BME280;46289;51.992;4.498;2023-04-07T08:11:07;101976.78;;;8.11;84.26
60437;BME280;46289;51.992;4.498;2023-04-07T08:13:17;101975.94;;;8.11;84.23
60437;BME280;46289;51.992;4.498;2023-04-07T08:15:22;101977.59;;;8.13;84.14
60437;BME280;46289;51.992;4.498;2023-04-07T08:17:27;101981.03;;;8.20;84.05
60437;BME280;46289;51.992;4.498;2023-04-07T08:19:32;101982.66;;;8.30;85.04
60437;BME280;46289;51.992;4.498;2023-04-07T08:21:37;101979.19;;;8.28;83.83
60437;BME280;46289;51.992;4.498;2023-04-07T08:23:42;101987.06;;;8.27;84.79
60437;BME280;46289;51.992;4.498;2023-04-07T08:25:47;101993.13;;;8.29;85.40
60437;BME280;46289;51.992;4.498;2023-04-07T08:27:52;101995.03;;;8.19;84.68
60437;BME280;46289;51.992;4.498;2023-04-07T08:30:01;101992.38;;;8.21;85.90
60437;BME280;46289;51.992;4.498;2023-04-07T08:32:07;101990.69;;;8.17;86.57
60437;BME280;46289;51.992;4.498;2023-04-07T08:34:15;101994.13;;;8.19;86.19
60437;BME280;46289;51.992;4.498;2023-04-07T08:36:22;101997.59;;;8.21;85.94
60437;BME280;46289;51.992;4.498;2023-04-07T08:38:27;102001.97;;;8.19;86.02
60437;BME280;46289;51.992;4.498;2023-04-07T08:40:32;102010.88;;;8.05;85.57
60437;BME280;46289;51.992;4.498;2023-04-07T08:42:42;102003.00;;;8.07;85.70
60437;BME280;46289;51.992;4.498;2023-04-07T08:44:50;102006.53;;;8.04;86.23
60437;BME280;46289;51.992;4.498;2023-04-07T08:47:00;102006.53;;;8.04;86.32
60437;BME280;46289;51.992;4.498;2023-04-07T08:49:10;102009.16;;;8.06;85.58
60437;BME280;46289;51.992;4.498;2023-04-07T08:51:22;102012.59;;;8.09;85.69
60437;BME280;46289;51.992;4.498;2023-04-07T08:53:35;102015.13;;;8.16;85.83
60437;BME280;46289;51.992;4.498;2023-04-07T08:55:41;102009.03;;;8.13;85.38
60437;BME280;46289;51.992;4.498;2023-04-07T08:57:47;102011.53;;;8.24;86.13
60437;BME280;46289;51.992;4.498;2023-04-07T08:59:52;102015.91;;;8.24;86.37
60437;BME280;46289;51.992;4.498;2023-04-07T09:02:01;102019.38;;;8.26;86.27
60437;BME280;46289;51.992;4.498;2023-04-07T09:04:09;102023.06;;;8.08;84.85
60437;BME280;46289;51.992;4.498;2023-04-07T09:06:17;102020.31;;;8.19;84.06
60437;BME280;46289;51.992;4.498;2023-04-07T09:08:24;102026.28;;;8.31;84.18
60437;BME280;46289;51.992;4.498;2023-04-07T09:10:29;102025.31;;;8.42;83.45
60437;BME280;46289;51.992;4.498;2023-04-07T09:12:34;102024.28;;;8.55;83.99
60437;BME280;46289;51.992;4.498;2023-04-07T09:14:39;102034.44;;;8.79;83.06
60437;BME280;46289;51.992;4.498;2023-04-07T09:16:44;102022.00;;;8.94;82.30
60437;BME280;46289;51.992;4.498;2023-04-07T09:18:52;102021.06;;;8.98;82.24
60437;BME280;46289;51.992;4.498;2023-04-07T09:20:59;102016.81;;;8.89;81.41
60437;BME280;46289;51.992;4.498;2023-04-07T09:23:05;102021.97;;;8.95;81.93
60437;BME280;46289;51.992;4.498;2023-04-07T09:25:14;102024.81;;;8.80;81.54
60437;BME280;46289;51.992;4.498;2023-04-07T09:27:19;102022.16;;;8.83;81.62
60437;BME280;46289;51.992;4.498;2023-04-07T09:29:25;102031.06;;;8.68;80.83
60437;BME280;46289;51.992;4.498;2023-04-07T09:31:43;102026.03;;;8.53;81.04
60437;BME280;46289;51.992;4.498;2023-04-07T09:33:51;102026.06;;;8.51;81.33
60437;BME280;46289;51.992;4.498;2023-04-07T09:35:58;102025.13;;;8.59;81.91
60437;BME280;46289;51.992;4.498;2023-04-07T09:38:04;102028.59;;;8.59;81.62
60437;BME280;46289;51.992;4.498;2023-04-07T09:40:10;102031.38;;;8.48;81.28
60437;BME280;46289;51.992;4.498;2023-04-07T09:42:18;102031.94;;;8.69;81.45
60437;BME280;46289;51.992;4.498;2023-04-07T09:44:24;102031.03;;;8.74;81.11
60437;BME280;46289;51.992;4.498;2023-04-07T09:46:29;102035.34;;;8.75;80.18
60437;BME280;46289;51.992;4.498;2023-04-07T09:48:35;102031.03;;;8.73;80.37
60437;BME280;46289;51.992;4.498;2023-04-07T09:50:42;102039.63;;;8.83;80.91
60437;BME280;46289;51.992;4.498;2023-04-07T09:52:54;102032.59;;;8.86;80.37
60437;BME280;46289;51.992;4.498;2023-04-07T09:55:20;102031.56;;;8.98;79.83
60437;BME280;46289;51.992;4.498;2023-04-07T09:57:29;102042.88;;;9.00;79.93
60437;BME280;46289;51.992;4.498;2023-04-07T09:59:49;102042.13;;;8.92;79.89
60437;BME280;46289;51.992;4.498;2023-04-07T10:02:07;102050.72;;;9.00;79.36
60437;BME280;46289;51.992;4.498;2023-04-07T10:06:51;102045.69;;;8.86;79.49
60437;BME280;46289;51.992;4.498;2023-04-07T10:09:00;102056.13;;;8.91;80.08
60437;BME280;46289;51.992;4.498;2023-04-07T10:11:11;102046.53;;;8.88;79.99
60437;BME280;46289;51.992;4.498;2023-04-07T10:13:20;102048.25;;;8.91;80.15
60437;BME280;46289;51.992;4.498;2023-04-07T10:15:28;102051.75;;;8.90;80.33
60437;BME280;46289;51.992;4.498;2023-04-07T10:17:39;102052.94;;;8.67;80.92
60437;BME280;46289;51.992;4.498;2023-04-07T10:19:47;102057.38;;;8.64;81.75
60437;BME280;46289;51.992;4.498;2023-04-07T10:21:56;102058.28;;;8.61;81.80
60437;BME280;46289;51.992;4.498;2023-04-07T10:24:41;102053.81;;;8.68;81.74
60437;BME280;46289;51.992;4.498;2023-04-07T10:26:59;102052.69;;;8.84;81.58
60437;BME280;46289;51.992;4.498;2023-04-07T10:29:24;102054.34;;;8.93;80.53
60437;BME280;46289;51.992;4.498;2023-04-07T10:31:55;102053.59;;;8.85;80.81
60437;BME280;46289;51.992;4.498;2023-04-07T10:40:39;102065.66;;;8.95;81.28
60437;BME280;46289;51.992;4.498;2023-04-07T10:42:58;102072.13;;;8.69;82.15
60437;BME280;46289;51.992;4.498;2023-04-07T10:45:04;102080.16;;;8.55;82.47
60437;BME280;46289;51.992;4.498;2023-04-07T10:47:16;102069.75;;;8.49;83.60
60437;BME280;46289;51.992;4.498;2023-04-07T10:49:22;102081.22;;;8.38;85.06
60437;BME280;46289;51.992;4.498;2023-04-07T10:51:27;102075.22;;;8.28;86.25
60437;BME280;46289;51.992;4.498;2023-04-07T10:53:33;102078.66;;;8.31;86.41
60437;BME280;46289;51.992;4.498;2023-04-07T10:55:41;102074.13;;;8.49;85.38
60437;BME280;46289;51.992;4.498;2023-04-07T11:00:24;102068.84;;;8.52;85.17
60437;BME280;46289;51.992;4.498;2023-04-07T11:02:32;102070.47;;;8.61;83.95
60437;BME280;46289;51.992;4.498;2023-04-07T11:04:43;102076.56;;;8.63;83.92
60437;BME280;46289;51.992;4.498;2023-04-07T11:06:51;102079.16;;;8.66;83.82
60437;BME280;46289;51.992;4.498;2023-04-07T11:09:05;102078.25;;;8.68;83.63
60437;BME280;46289;51.992;4.498;2023-04-07T11:11:40;102081.72;;;8.69;83.33
60437;BME280;46289;51.992;4.498;2023-04-07T11:13:53;102079.97;;;8.71;83.05
60437;BME280;46289;51.992;4.498;2023-04-07T11:16:02;102092.03;;;8.84;82.51
60437;BME280;46289;51.992;4.498;2023-04-07T11:18:19;102083.03;;;9.04;82.71
60437;BME280;46289;51.992;4.498;2023-04-07T11:20:39;102083.00;;;9.05;81.21
60437;BME280;46289;51.992;4.498;2023-04-07T11:22:59;102082.19;;;9.03;81.20
60437;BME280;46289;51.992;4.498;2023-04-07T11:25:20;102079.41;;;9.11;81.43
60437;BME280;46289;51.992;4.498;2023-04-07T11:27:34;102090.88;;;9.05;80.79
60437;BME280;46289;51.992;4.498;2023-04-07T11:29:41;102091.22;;;8.81;80.39